Terminal Aerodrome Forecast
Issued by NWS

Home | Current Version | Previous Version | Text Only | Print | Product List | Glossary On
Versions: 1 2 3 4 5 6 7 8 9 10 11 12 13 14 15 16 17
240
FTPA31 PHFO 030827 AAB
TAFHLI
TAF AMD
PHLI 030827Z 0308/0406 05013KT P6SM VCSH SCT025 BKN045
      TEMPO 0308/0310 -SHRA BKN020
     FM040300 06013KT 5SM -SHRA BR SCT015 BKN025=

USA.gov is the U.S. government's official web portal to all federal, state and local government web resources and services.